<?xml version="1.0" encoding="UTF-8" standalone="no" ?><gpx xmlns="http://www.topografix.com/GPX/1/1" xmlns:gpxx="http://www.garmin.com/xmlschemas/GpxExtensions/v3" xmlns:wptx1="http://www.garmin.com/xmlschemas/WaypointExtension/v1" xmlns:gpxtpx="http://www.garmin.com/xmlschemas/TrackPointExtension/v1" creator="GuideVTT.com" version="1.1" xmlns:xsi="http://www.w3.org/2001/XMLSchema-instance" xsi:schemaLocation="http://www.topografix.com/GPX/1/1 http://www.topografix.com/GPX/1/1/gpx.xsd http://www.garmin.com/xmlschemas/GpxExtensions/v3 http://www8.garmin.com/xmlschemas/GpxExtensionsv3.xsd http://www.garmin.com/xmlschemas/WaypointExtension/v1 http://www8.garmin.com/xmlschemas/WaypointExtensionv1.xsd http://www.garmin.com/xmlschemas/TrackPointExtension/v1 http://www.garmin.com/xmlschemas/TrackPointExtensionv1.xsd">
<metadata><link href="http://www.garmin.com"><text>Garmin International</text></link><time>2013-06-22T15:13:50Z</time></metadata>
<trk><name>tvh-suen_evolene.gpx</name><extensions><gpxx:TrackExtension><gpxx:DisplayColor>Cyan</gpxx:DisplayColor></gpxx:TrackExtension></extensions><trkseg>
<trkpt lat="46.18712425" lon="7.44465351"><ele></ele><time>2014-5-21T6:6:25Z</time></trkpt>
<trkpt lat="46.18729591" lon="7.44506121"><ele></ele><time>2014-5-21T6:6:28Z</time></trkpt>
<trkpt lat="46.18736029" lon="7.44536161"><ele></ele><time>2014-5-21T6:6:31Z</time></trkpt>
<trkpt lat="46.18738174" lon="7.44566202"><ele></ele><time>2014-5-21T6:6:34Z</time></trkpt>
<trkpt lat="46.18733883" lon="7.44596243"><ele></ele><time>2014-5-21T6:6:37Z</time></trkpt>
<trkpt lat="46.18742466" lon="7.44679928"><ele></ele><time>2014-5-21T6:6:40Z</time></trkpt>
<trkpt lat="46.18787527" lon="7.44789362"><ele></ele><time>2014-5-21T6:6:43Z</time></trkpt>
<trkpt lat="46.18806839" lon="7.44866610"><ele></ele><time>2014-5-21T6:6:46Z</time></trkpt>
<trkpt lat="46.18871212" lon="7.45014668"><ele></ele><time>2014-5-21T6:6:49Z</time></trkpt>
<trkpt lat="46.18886232" lon="7.45083332"><ele></ele><time>2014-5-21T6:6:52Z</time></trkpt>
<trkpt lat="46.18871212" lon="7.45072603"><ele></ele><time>2014-5-21T6:6:55Z</time></trkpt>
<trkpt lat="46.18847609" lon="7.45038271"><ele></ele><time>2014-5-21T6:6:58Z</time></trkpt>
<trkpt lat="46.18800402" lon="7.45018959"><ele></ele><time>2014-5-21T6:7:1Z</time></trkpt>
<trkpt lat="46.18783236" lon="7.44997501"><ele></ele><time>2014-5-21T6:7:4Z</time></trkpt>
<trkpt lat="46.18763924" lon="7.44913816"><ele></ele><time>2014-5-21T6:7:7Z</time></trkpt>
<trkpt lat="46.18744612" lon="7.44870901"><ele></ele><time>2014-5-21T6:7:10Z</time></trkpt>
<trkpt lat="46.18695259" lon="7.44825840"><ele></ele><time>2014-5-21T6:7:13Z</time></trkpt>
<trkpt lat="46.18675947" lon="7.44800091"><ele></ele><time>2014-5-21T6:7:16Z</time></trkpt>
<trkpt lat="46.18635178" lon="7.44707823"><ele></ele><time>2014-5-21T6:7:19Z</time></trkpt>
<trkpt lat="46.18620157" lon="7.44664907"><ele></ele><time>2014-5-21T6:7:22Z</time></trkpt>
<trkpt lat="46.18551493" lon="7.44602680"><ele></ele><time>2014-5-21T6:7:25Z</time></trkpt>
<trkpt lat="46.18502140" lon="7.44568348"><ele></ele><time>2014-5-21T6:7:28Z</time></trkpt>
<trkpt lat="46.18463516" lon="7.44566202"><ele></ele><time>2014-5-21T6:7:31Z</time></trkpt>
<trkpt lat="46.18427038" lon="7.44538307"><ele></ele><time>2014-5-21T6:7:34Z</time></trkpt>
<trkpt lat="46.18392706" lon="7.44501829"><ele></ele><time>2014-5-21T6:7:37Z</time></trkpt>
<trkpt lat="46.18339062" lon="7.44471788"><ele></ele><time>2014-5-21T6:7:40Z</time></trkpt>
<trkpt lat="46.18244648" lon="7.44381666"><ele></ele><time>2014-5-21T6:7:43Z</time></trkpt>
<trkpt lat="46.18221045" lon="7.44366646"><ele></ele><time>2014-5-21T6:7:46Z</time></trkpt>
<trkpt lat="46.18173838" lon="7.44370937"><ele></ele><time>2014-5-21T6:7:49Z</time></trkpt>
<trkpt lat="46.18171692" lon="7.44364500"><ele></ele><time>2014-5-21T6:7:52Z</time></trkpt>
<trkpt lat="46.18167400" lon="7.44370937"><ele></ele><time>2014-5-21T6:7:55Z</time></trkpt>
<trkpt lat="46.18143797" lon="7.44385958"><ele></ele><time>2014-5-21T6:7:58Z</time></trkpt>
<trkpt lat="46.18051529" lon="7.44465351"><ele></ele><time>2014-5-21T6:8:1Z</time></trkpt>
<trkpt lat="46.18021488" lon="7.44493246"><ele></ele><time>2014-5-21T6:8:4Z</time></trkpt>
<trkpt lat="46.18000031" lon="7.44523287"><ele></ele><time>2014-5-21T6:8:7Z</time></trkpt>
<trkpt lat="46.17997885" lon="7.44523287"><ele></ele><time>2014-5-21T6:8:10Z</time></trkpt>
<trkpt lat="46.17993593" lon="7.44503975"><ele></ele><time>2014-5-21T6:8:13Z</time></trkpt>
<trkpt lat="46.17995739" lon="7.44521141"><ele></ele><time>2014-5-21T6:8:16Z</time></trkpt>
<trkpt lat="46.17985010" lon="7.44549036"><ele></ele><time>2014-5-21T6:8:19Z</time></trkpt>
<trkpt lat="46.17967844" lon="7.44581223"><ele></ele><time>2014-5-21T6:8:22Z</time></trkpt>
<trkpt lat="46.17942095" lon="7.44615555"><ele></ele><time>2014-5-21T6:8:25Z</time></trkpt>
<trkpt lat="46.17935658" lon="7.44617701"><ele></ele><time>2014-5-21T6:8:28Z</time></trkpt>
<trkpt lat="46.17897034" lon="7.44654179"><ele></ele><time>2014-5-21T6:8:31Z</time></trkpt>
<trkpt lat="46.17871284" lon="7.44712114"><ele></ele><time>2014-5-21T6:8:34Z</time></trkpt>
<trkpt lat="46.17851973" lon="7.44742155"><ele></ele><time>2014-5-21T6:8:37Z</time></trkpt>
<trkpt lat="46.17847681" lon="7.44746447"><ele></ele><time>2014-5-21T6:8:40Z</time></trkpt>
<trkpt lat="46.17851973" lon="7.44737864"><ele></ele><time>2014-5-21T6:8:43Z</time></trkpt>
<trkpt lat="46.17821932" lon="7.44759321"><ele></ele><time>2014-5-21T6:8:46Z</time></trkpt>
<trkpt lat="46.17785454" lon="7.44793653"><ele></ele><time>2014-5-21T6:8:49Z</time></trkpt>
<trkpt lat="46.17772579" lon="7.44800091"><ele></ele><time>2014-5-21T6:8:52Z</time></trkpt>
<trkpt lat="46.17703915" lon="7.44860172"><ele></ele><time>2014-5-21T6:8:55Z</time></trkpt>
<trkpt lat="46.17691040" lon="7.44885921"><ele></ele><time>2014-5-21T6:8:58Z</time></trkpt>
<trkpt lat="46.17648125" lon="7.44950294"><ele></ele><time>2014-5-21T6:9:1Z</time></trkpt>
<trkpt lat="46.17624521" lon="7.44961023"><ele></ele><time>2014-5-21T6:9:4Z</time></trkpt>
<trkpt lat="46.17598772" lon="7.44991064"><ele></ele><time>2014-5-21T6:9:7Z</time></trkpt>
<trkpt lat="46.17581606" lon="7.45031834"><ele></ele><time>2014-5-21T6:9:10Z</time></trkpt>
<trkpt lat="46.17568731" lon="7.45055437"><ele></ele><time>2014-5-21T6:9:13Z</time></trkpt>
<trkpt lat="46.17562294" lon="7.45089769"><ele></ele><time>2014-5-21T6:9:16Z</time></trkpt>
<trkpt lat="46.17547274" lon="7.45130539"><ele></ele><time>2014-5-21T6:9:19Z</time></trkpt>
<trkpt lat="46.17523670" lon="7.45164871"><ele></ele><time>2014-5-21T6:9:22Z</time></trkpt>
<trkpt lat="46.17504358" lon="7.45257139"><ele></ele><time>2014-5-21T6:9:25Z</time></trkpt>
<trkpt lat="46.17482901" lon="7.45321512"><ele></ele><time>2014-5-21T6:9:28Z</time></trkpt>
<trkpt lat="46.17452860" lon="7.45368719"><ele></ele><time>2014-5-21T6:9:31Z</time></trkpt>
<trkpt lat="46.17435694" lon="7.45403051"><ele></ele><time>2014-5-21T6:9:34Z</time></trkpt>
<trkpt lat="46.17420673" lon="7.45424509"><ele></ele><time>2014-5-21T6:9:37Z</time></trkpt>
<trkpt lat="46.17390633" lon="7.45516777"><ele></ele><time>2014-5-21T6:9:40Z</time></trkpt>
<trkpt lat="46.17369175" lon="7.45548964"><ele></ele><time>2014-5-21T6:9:43Z</time></trkpt>
<trkpt lat="46.17349863" lon="7.45566130"><ele></ele><time>2014-5-21T6:9:46Z</time></trkpt>
<trkpt lat="46.17328405" lon="7.45589733"><ele></ele><time>2014-5-21T6:9:49Z</time></trkpt>
<trkpt lat="46.17317677" lon="7.45594025"><ele></ele><time>2014-5-21T6:9:52Z</time></trkpt>
<trkpt lat="46.17281199" lon="7.45621920"><ele></ele><time>2014-5-21T6:9:55Z</time></trkpt>
<trkpt lat="46.17266178" lon="7.45641232"><ele></ele><time>2014-5-21T6:9:58Z</time></trkpt>
<trkpt lat="46.17261887" lon="7.45658398"><ele></ele><time>2014-5-21T6:10:1Z</time></trkpt>
<trkpt lat="46.17264032" lon="7.45688438"><ele></ele><time>2014-5-21T6:10:4Z</time></trkpt>
<trkpt lat="46.17244720" lon="7.45739937"><ele></ele><time>2014-5-21T6:10:7Z</time></trkpt>
<trkpt lat="46.17238283" lon="7.45748520"><ele></ele><time>2014-5-21T6:10:10Z</time></trkpt>
<trkpt lat="46.17229700" lon="7.45776415"><ele></ele><time>2014-5-21T6:10:13Z</time></trkpt>
<trkpt lat="46.17216825" lon="7.45838642"><ele></ele><time>2014-5-21T6:10:16Z</time></trkpt>
<trkpt lat="46.17203951" lon="7.45872974"><ele></ele><time>2014-5-21T6:10:19Z</time></trkpt>
<trkpt lat="46.17193222" lon="7.45941639"><ele></ele><time>2014-5-21T6:10:22Z</time></trkpt>
<trkpt lat="46.17173910" lon="7.45986700"><ele></ele><time>2014-5-21T6:10:25Z</time></trkpt>
<trkpt lat="46.17156744" lon="7.46057510"><ele></ele><time>2014-5-21T6:10:28Z</time></trkpt>
<trkpt lat="46.17141724" lon="7.46014595"><ele></ele><time>2014-5-21T6:10:31Z</time></trkpt>
<trkpt lat="46.17092371" lon="7.46076822"><ele></ele><time>2014-5-21T6:10:34Z</time></trkpt>
<trkpt lat="46.17070913" lon="7.46096134"><ele></ele><time>2014-5-21T6:10:37Z</time></trkpt>
<trkpt lat="46.17070913" lon="7.46154070"><ele></ele><time>2014-5-21T6:10:40Z</time></trkpt>
<trkpt lat="46.17064476" lon="7.46190548"><ele></ele><time>2014-5-21T6:10:43Z</time></trkpt>
<trkpt lat="46.17034435" lon="7.46192694"><ele></ele><time>2014-5-21T6:10:46Z</time></trkpt>
<trkpt lat="46.17004395" lon="7.46212006"><ele></ele><time>2014-5-21T6:10:49Z</time></trkpt>
<trkpt lat="46.16993666" lon="7.46227026"><ele></ele><time>2014-5-21T6:10:52Z</time></trkpt>
<trkpt lat="46.16982937" lon="7.46250629"><ele></ele><time>2014-5-21T6:10:55Z</time></trkpt>
<trkpt lat="46.16976500" lon="7.46276379"><ele></ele><time>2014-5-21T6:10:58Z</time></trkpt>
<trkpt lat="46.16976500" lon="7.46280670"><ele></ele><time>2014-5-21T6:11:1Z</time></trkpt>
<trkpt lat="46.16987228" lon="7.46295691"><ele></ele><time>2014-5-21T6:11:4Z</time></trkpt>
<trkpt lat="46.16980791" lon="7.46360064"><ele></ele><time>2014-5-21T6:11:7Z</time></trkpt>
<trkpt lat="46.16963625" lon="7.46372938"><ele></ele><time>2014-5-21T6:11:10Z</time></trkpt>
<trkpt lat="46.16955042" lon="7.46400833"><ele></ele><time>2014-5-21T6:11:13Z</time></trkpt>
<trkpt lat="46.16944313" lon="7.46475935"><ele></ele><time>2014-5-21T6:11:16Z</time></trkpt>
<trkpt lat="46.16940022" lon="7.46486664"><ele></ele><time>2014-5-21T6:11:19Z</time></trkpt>
<trkpt lat="46.16944313" lon="7.46490955"><ele></ele><time>2014-5-21T6:11:22Z</time></trkpt>
<trkpt lat="46.16942167" lon="7.46490955"><ele></ele><time>2014-5-21T6:11:25Z</time></trkpt>
<trkpt lat="46.16933584" lon="7.46501684"><ele></ele><time>2014-5-21T6:11:28Z</time></trkpt>
<trkpt lat="46.16873503" lon="7.46482372"><ele></ele><time>2014-5-21T6:11:31Z</time></trkpt>
<trkpt lat="46.16819859" lon="7.46475935"><ele></ele><time>2014-5-21T6:11:34Z</time></trkpt>
<trkpt lat="46.16794109" lon="7.46458769"><ele></ele><time>2014-5-21T6:11:37Z</time></trkpt>
<trkpt lat="46.16740465" lon="7.46409416"><ele></ele><time>2014-5-21T6:11:40Z</time></trkpt>
<trkpt lat="46.16706133" lon="7.46385813"><ele></ele><time>2014-5-21T6:11:43Z</time></trkpt>
<trkpt lat="46.16678238" lon="7.46370792"><ele></ele><time>2014-5-21T6:11:46Z</time></trkpt>
<trkpt lat="46.16646051" lon="7.46362209"><ele></ele><time>2014-5-21T6:11:49Z</time></trkpt>
<trkpt lat="46.16607428" lon="7.46370792"><ele></ele><time>2014-5-21T6:11:52Z</time></trkpt>
<trkpt lat="46.16583824" lon="7.46394396"><ele></ele><time>2014-5-21T6:11:55Z</time></trkpt>
<trkpt lat="46.16562366" lon="7.46424437"><ele></ele><time>2014-5-21T6:11:58Z</time></trkpt>
<trkpt lat="46.16545200" lon="7.46443748"><ele></ele><time>2014-5-21T6:12:1Z</time></trkpt>
<trkpt lat="46.16525888" lon="7.46448040"><ele></ele><time>2014-5-21T6:12:4Z</time></trkpt>
<trkpt lat="46.16515160" lon="7.46456623"><ele></ele><time>2014-5-21T6:12:7Z</time></trkpt>
<trkpt lat="46.16480827" lon="7.46443748"><ele></ele><time>2014-5-21T6:12:10Z</time></trkpt>
<trkpt lat="46.16429329" lon="7.46413708"><ele></ele><time>2014-5-21T6:12:13Z</time></trkpt>
<trkpt lat="46.16403580" lon="7.46377230"><ele></ele><time>2014-5-21T6:12:16Z</time></trkpt>
<trkpt lat="46.16377831" lon="7.46372938"><ele></ele><time>2014-5-21T6:12:19Z</time></trkpt>
<trkpt lat="46.16362810" lon="7.46375084"><ele></ele><time>2014-5-21T6:12:22Z</time></trkpt>
<trkpt lat="46.16362810" lon="7.46379375"><ele></ele><time>2014-5-21T6:12:25Z</time></trkpt>
<trkpt lat="46.16337061" lon="7.46364355"><ele></ele><time>2014-5-21T6:12:28Z</time></trkpt>
<trkpt lat="46.16298437" lon="7.46353626"><ele></ele><time>2014-5-21T6:12:31Z</time></trkpt>
<trkpt lat="46.16225481" lon="7.46323586"><ele></ele><time>2014-5-21T6:12:34Z</time></trkpt>
<trkpt lat="46.16171837" lon="7.46330023"><ele></ele><time>2014-5-21T6:12:37Z</time></trkpt>
<trkpt lat="46.16131067" lon="7.46340752"><ele></ele><time>2014-5-21T6:12:40Z</time></trkpt>
<trkpt lat="46.16096735" lon="7.46336460"><ele></ele><time>2014-5-21T6:12:43Z</time></trkpt>
<trkpt lat="46.16060257" lon="7.46321440"><ele></ele><time>2014-5-21T6:12:46Z</time></trkpt>
<trkpt lat="46.16021633" lon="7.46293545"><ele></ele><time>2014-5-21T6:12:49Z</time></trkpt>
<trkpt lat="46.15976572" lon="7.46274233"><ele></ele><time>2014-5-21T6:12:52Z</time></trkpt>
<trkpt lat="46.15935802" lon="7.46274233"><ele></ele><time>2014-5-21T6:12:55Z</time></trkpt>
<trkpt lat="46.15886450" lon="7.46299982"><ele></ele><time>2014-5-21T6:12:58Z</time></trkpt>
<trkpt lat="46.15845680" lon="7.46338606"><ele></ele><time>2014-5-21T6:13:1Z</time></trkpt>
<trkpt lat="46.15832806" lon="7.46355772"><ele></ele><time>2014-5-21T6:13:4Z</time></trkpt>
<trkpt lat="46.15819931" lon="7.46351480"><ele></ele><time>2014-5-21T6:13:7Z</time></trkpt>
<trkpt lat="46.15798473" lon="7.46351480"><ele></ele><time>2014-5-21T6:13:10Z</time></trkpt>
<trkpt lat="46.15766287" lon="7.46366501"><ele></ele><time>2014-5-21T6:13:13Z</time></trkpt>
<trkpt lat="46.15742683" lon="7.46370792"><ele></ele><time>2014-5-21T6:13:16Z</time></trkpt>
<trkpt lat="46.15721226" lon="7.46385813"><ele></ele><time>2014-5-21T6:13:19Z</time></trkpt>
<trkpt lat="46.15712643" lon="7.46396542"><ele></ele><time>2014-5-21T6:13:22Z</time></trkpt>
<trkpt lat="46.15691185" lon="7.46415854"><ele></ele><time>2014-5-21T6:13:25Z</time></trkpt>
<trkpt lat="46.15674019" lon="7.46435165"><ele></ele><time>2014-5-21T6:13:28Z</time></trkpt>
<trkpt lat="46.15648270" lon="7.46475935"><ele></ele><time>2014-5-21T6:13:31Z</time></trkpt>
<trkpt lat="46.15628958" lon="7.46480227"><ele></ele><time>2014-5-21T6:13:34Z</time></trkpt>
<trkpt lat="46.15624666" lon="7.46486664"><ele></ele><time>2014-5-21T6:13:37Z</time></trkpt>
<trkpt lat="46.15601063" lon="7.46490955"><ele></ele><time>2014-5-21T6:13:40Z</time></trkpt>
<trkpt lat="46.15573168" lon="7.46533871"><ele></ele><time>2014-5-21T6:13:43Z</time></trkpt>
<trkpt lat="46.15534544" lon="7.46540308"><ele></ele><time>2014-5-21T6:13:46Z</time></trkpt>
<trkpt lat="46.15510941" lon="7.46557474"><ele></ele><time>2014-5-21T6:13:49Z</time></trkpt>
<trkpt lat="46.15478754" lon="7.46589661"><ele></ele><time>2014-5-21T6:13:52Z</time></trkpt>
<trkpt lat="46.15450859" lon="7.46611118"><ele></ele><time>2014-5-21T6:13:55Z</time></trkpt>
<trkpt lat="46.15431547" lon="7.46606827"><ele></ele><time>2014-5-21T6:13:58Z</time></trkpt>
<trkpt lat="46.15433693" lon="7.46611118"><ele></ele><time>2014-5-21T6:14:1Z</time></trkpt>
<trkpt lat="46.15429401" lon="7.46651888"><ele></ele><time>2014-5-21T6:14:4Z</time></trkpt>
<trkpt lat="46.15431547" lon="7.46641159"><ele></ele><time>2014-5-21T6:14:7Z</time></trkpt>
<trkpt lat="46.15422964" lon="7.46654034"><ele></ele><time>2014-5-21T6:14:10Z</time></trkpt>
<trkpt lat="46.15367174" lon="7.46662617"><ele></ele><time>2014-5-21T6:14:13Z</time></trkpt>
<trkpt lat="46.15356445" lon="7.46684074"><ele></ele><time>2014-5-21T6:14:16Z</time></trkpt>
<trkpt lat="46.15352154" lon="7.46705532"><ele></ele><time>2014-5-21T6:14:19Z</time></trkpt>
<trkpt lat="46.15352154" lon="7.46744156"><ele></ele><time>2014-5-21T6:14:22Z</time></trkpt>
<trkpt lat="46.15332842" lon="7.46784925"><ele></ele><time>2014-5-21T6:14:25Z</time></trkpt>
<trkpt lat="46.15304947" lon="7.46808529"><ele></ele><time>2014-5-21T6:14:28Z</time></trkpt>
<trkpt lat="46.15283489" lon="7.46834278"><ele></ele><time>2014-5-21T6:14:31Z</time></trkpt>
<trkpt lat="46.15279198" lon="7.46887922"><ele></ele><time>2014-5-21T6:14:34Z</time></trkpt>
<trkpt lat="46.15272760" lon="7.46909380"><ele></ele><time>2014-5-21T6:14:37Z</time></trkpt>
<trkpt lat="46.15242720" lon="7.46950150"><ele></ele><time>2014-5-21T6:14:40Z</time></trkpt>
<trkpt lat="46.15208387" lon="7.46982336"><ele></ele><time>2014-5-21T6:14:43Z</time></trkpt>
<trkpt lat="46.15174055" lon="7.46984482"><ele></ele><time>2014-5-21T6:14:46Z</time></trkpt>
<trkpt lat="46.15148306" lon="7.47029543"><ele></ele><time>2014-5-21T6:14:49Z</time></trkpt>
<trkpt lat="46.15113974" lon="7.47078896"><ele></ele><time>2014-5-21T6:14:52Z</time></trkpt>
<trkpt lat="46.15090370" lon="7.47087479"><ele></ele><time>2014-5-21T6:14:55Z</time></trkpt>
<trkpt lat="46.15088224" lon="7.47087479"><ele></ele><time>2014-5-21T6:14:58Z</time></trkpt>
<trkpt lat="46.15086079" lon="7.47083187"><ele></ele><time>2014-5-21T6:15:1Z</time></trkpt>
<trkpt lat="46.15081787" lon="7.47085333"><ele></ele><time>2014-5-21T6:15:4Z</time></trkpt>
<trkpt lat="46.15081787" lon="7.47066021"><ele></ele><time>2014-5-21T6:15:7Z</time></trkpt>
<trkpt lat="46.15060329" lon="7.47014523"><ele></ele><time>2014-5-21T6:15:10Z</time></trkpt>
<trkpt lat="46.15062475" lon="7.46990919"><ele></ele><time>2014-5-21T6:15:13Z</time></trkpt>
<trkpt lat="46.15058184" lon="7.46975899"><ele></ele><time>2014-5-21T6:15:16Z</time></trkpt>
<trkpt lat="46.15064621" lon="7.46967316"><ele></ele><time>2014-5-21T6:15:19Z</time></trkpt>
<trkpt lat="46.15073204" lon="7.46960878"><ele></ele><time>2014-5-21T6:15:22Z</time></trkpt>
<trkpt lat="46.15073204" lon="7.46956587"><ele></ele><time>2014-5-21T6:15:25Z</time></trkpt>
<trkpt lat="46.15066767" lon="7.46963024"><ele></ele><time>2014-5-21T6:15:28Z</time></trkpt>
<trkpt lat="46.15051746" lon="7.46967316"><ele></ele><time>2014-5-21T6:15:31Z</time></trkpt>
<trkpt lat="46.15058184" lon="7.46978045"><ele></ele><time>2014-5-21T6:15:34Z</time></trkpt>
<trkpt lat="46.15047455" lon="7.47020960"><ele></ele><time>2014-5-21T6:15:37Z</time></trkpt>
<trkpt lat="46.15045309" lon="7.47048855"><ele></ele><time>2014-5-21T6:15:40Z</time></trkpt>
<trkpt lat="46.15030289" lon="7.47089624"><ele></ele><time>2014-5-21T6:15:43Z</time></trkpt>
<trkpt lat="46.15002394" lon="7.47121811"><ele></ele><time>2014-5-21T6:15:46Z</time></trkpt>
<trkpt lat="46.14980936" lon="7.47141123"><ele></ele><time>2014-5-21T6:15:49Z</time></trkpt>
<trkpt lat="46.14970207" lon="7.47162580"><ele></ele><time>2014-5-21T6:15:52Z</time></trkpt>
<trkpt lat="46.14935875" lon="7.47190475"><ele></ele><time>2014-5-21T6:15:55Z</time></trkpt>
<trkpt lat="46.14931583" lon="7.47190475"><ele></ele><time>2014-5-21T6:15:58Z</time></trkpt>
<trkpt lat="46.14957333" lon="7.47141123"><ele></ele><time>2014-5-21T6:16:1Z</time></trkpt>
<trkpt lat="46.14974499" lon="7.47053146"><ele></ele><time>2014-5-21T6:16:4Z</time></trkpt>
<trkpt lat="46.14983082" lon="7.46937275"><ele></ele><time>2014-5-21T6:16:7Z</time></trkpt>
<trkpt lat="46.14976645" lon="7.46885777"><ele></ele><time>2014-5-21T6:16:10Z</time></trkpt>
<trkpt lat="46.14983082" lon="7.46847153"><ele></ele><time>2014-5-21T6:16:13Z</time></trkpt>
<trkpt lat="46.15023851" lon="7.46789217"><ele></ele><time>2014-5-21T6:16:16Z</time></trkpt>
<trkpt lat="46.15056038" lon="7.46731281"><ele></ele><time>2014-5-21T6:16:19Z</time></trkpt>
<trkpt lat="46.15064621" lon="7.46720552"><ele></ele><time>2014-5-21T6:16:22Z</time></trkpt>
<trkpt lat="46.15060329" lon="7.46718407"><ele></ele><time>2014-5-21T6:16:25Z</time></trkpt>
<trkpt lat="46.15036726" lon="7.46737719"><ele></ele><time>2014-5-21T6:16:28Z</time></trkpt>
<trkpt lat="46.15017414" lon="7.46765614"><ele></ele><time>2014-5-21T6:16:31Z</time></trkpt>
<trkpt lat="46.14963770" lon="7.46827841"><ele></ele><time>2014-5-21T6:16:34Z</time></trkpt>
<trkpt lat="46.14955187" lon="7.46857882"><ele></ele><time>2014-5-21T6:16:37Z</time></trkpt>
<trkpt lat="46.14942312" lon="7.46980190"><ele></ele><time>2014-5-21T6:16:40Z</time></trkpt>
<trkpt lat="46.14899397" lon="7.47048855"><ele></ele><time>2014-5-21T6:16:43Z</time></trkpt>
<trkpt lat="46.14856482" lon="7.47141123"><ele></ele><time>2014-5-21T6:16:46Z</time></trkpt>
<trkpt lat="46.14847898" lon="7.47153997"><ele></ele><time>2014-5-21T6:16:49Z</time></trkpt>
<trkpt lat="46.14839315" lon="7.47201204"><ele></ele><time>2014-5-21T6:16:52Z</time></trkpt>
<trkpt lat="46.14811420" lon="7.47310638"><ele></ele><time>2014-5-21T6:16:55Z</time></trkpt>
<trkpt lat="46.14789963" lon="7.47355700"><ele></ele><time>2014-5-21T6:16:58Z</time></trkpt>
<trkpt lat="46.14759922" lon="7.47495174"><ele></ele><time>2014-5-21T6:17:1Z</time></trkpt>
<trkpt lat="46.14744902" lon="7.47480154"><ele></ele><time>2014-5-21T6:17:4Z</time></trkpt>
<trkpt lat="46.14719152" lon="7.47435093"><ele></ele><time>2014-5-21T6:17:7Z</time></trkpt>
<trkpt lat="46.14680529" lon="7.47394323"><ele></ele><time>2014-5-21T6:17:10Z</time></trkpt>
<trkpt lat="46.14669800" lon="7.47377157"><ele></ele><time>2014-5-21T6:17:13Z</time></trkpt>
<trkpt lat="46.14650488" lon="7.47319221"><ele></ele><time>2014-5-21T6:17:16Z</time></trkpt>
<trkpt lat="46.14631176" lon="7.47278452"><ele></ele><time>2014-5-21T6:17:19Z</time></trkpt>
<trkpt lat="46.14601135" lon="7.47248411"><ele></ele><time>2014-5-21T6:17:22Z</time></trkpt>
<trkpt lat="46.14547491" lon="7.47149706"><ele></ele><time>2014-5-21T6:17:25Z</time></trkpt>
<trkpt lat="46.14530325" lon="7.47151852"><ele></ele><time>2014-5-21T6:17:28Z</time></trkpt>
<trkpt lat="46.14498138" lon="7.47171164"><ele></ele><time>2014-5-21T6:17:31Z</time></trkpt>
<trkpt lat="46.14470243" lon="7.47175455"><ele></ele><time>2014-5-21T6:17:34Z</time></trkpt>
<trkpt lat="46.14412308" lon="7.47203350"><ele></ele><time>2014-5-21T6:17:37Z</time></trkpt>
<trkpt lat="46.14397287" lon="7.47214079"><ele></ele><time>2014-5-21T6:17:40Z</time></trkpt>
<trkpt lat="46.14384413" lon="7.47235537"><ele></ele><time>2014-5-21T6:17:43Z</time></trkpt>
<trkpt lat="46.14371538" lon="7.47241974"><ele></ele><time>2014-5-21T6:17:46Z</time></trkpt>
<trkpt lat="46.14369392" lon="7.47248411"><ele></ele><time>2014-5-21T6:17:49Z</time></trkpt>
<trkpt lat="46.14380121" lon="7.47244120"><ele></ele><time>2014-5-21T6:17:52Z</time></trkpt>
<trkpt lat="46.14362955" lon="7.47244120"><ele></ele><time>2014-5-21T6:17:55Z</time></trkpt>
<trkpt lat="46.14339352" lon="7.47263432"><ele></ele><time>2014-5-21T6:17:58Z</time></trkpt>
<trkpt lat="46.14320040" lon="7.47304201"><ele></ele><time>2014-5-21T6:18:1Z</time></trkpt>
<trkpt lat="46.14317894" lon="7.47314930"><ele></ele><time>2014-5-21T6:18:4Z</time></trkpt>
<trkpt lat="46.14274979" lon="7.47347116"><ele></ele><time>2014-5-21T6:18:7Z</time></trkpt>
<trkpt lat="46.14262104" lon="7.47372866"><ele></ele><time>2014-5-21T6:18:10Z</time></trkpt>
<trkpt lat="46.14242792" lon="7.47398615"><ele></ele><time>2014-5-21T6:18:13Z</time></trkpt>
<trkpt lat="46.14219189" lon="7.47405052"><ele></ele><time>2014-5-21T6:18:16Z</time></trkpt>
<trkpt lat="46.14167690" lon="7.47445822"><ele></ele><time>2014-5-21T6:18:19Z</time></trkpt>
<trkpt lat="46.14101171" lon="7.47452259"><ele></ele><time>2014-5-21T6:18:22Z</time></trkpt>
<trkpt lat="46.14073277" lon="7.47467279"><ele></ele><time>2014-5-21T6:18:25Z</time></trkpt>
<trkpt lat="46.14064693" lon="7.47484446"><ele></ele><time>2014-5-21T6:18:28Z</time></trkpt>
<trkpt lat="46.14058256" lon="7.47525215"><ele></ele><time>2014-5-21T6:18:31Z</time></trkpt>
<trkpt lat="46.14034653" lon="7.47553110"><ele></ele><time>2014-5-21T6:18:34Z</time></trkpt>
<trkpt lat="46.14021778" lon="7.47561693"><ele></ele><time>2014-5-21T6:18:37Z</time></trkpt>
<trkpt lat="46.14015341" lon="7.47570276"><ele></ele><time>2014-5-21T6:18:40Z</time></trkpt>
<trkpt lat="46.13993883" lon="7.47589588"><ele></ele><time>2014-5-21T6:18:43Z</time></trkpt>
<trkpt lat="46.13976717" lon="7.47621775"><ele></ele><time>2014-5-21T6:18:46Z</time></trkpt>
<trkpt lat="46.13901615" lon="7.47686148"><ele></ele><time>2014-5-21T6:18:49Z</time></trkpt>
<trkpt lat="46.13888741" lon="7.47707605"><ele></ele><time>2014-5-21T6:18:52Z</time></trkpt>
<trkpt lat="46.13828659" lon="7.47774124"><ele></ele><time>2014-5-21T6:18:55Z</time></trkpt>
<trkpt lat="46.13815784" lon="7.47784853"><ele></ele><time>2014-5-21T6:18:58Z</time></trkpt>
<trkpt lat="46.13800764" lon="7.47784853"><ele></ele><time>2014-5-21T6:19:1Z</time></trkpt>
<trkpt lat="46.13783598" lon="7.47795582"><ele></ele><time>2014-5-21T6:19:4Z</time></trkpt>
<trkpt lat="46.13790035" lon="7.47823477"><ele></ele><time>2014-5-21T6:19:7Z</time></trkpt>
<trkpt lat="46.13798618" lon="7.47832060"><ele></ele><time>2014-5-21T6:19:10Z</time></trkpt>
<trkpt lat="46.13813639" lon="7.47836351"><ele></ele><time>2014-5-21T6:19:13Z</time></trkpt>
<trkpt lat="46.13815784" lon="7.47829914"><ele></ele><time>2014-5-21T6:19:16Z</time></trkpt>
<trkpt lat="46.13794327" lon="7.47825623"><ele></ele><time>2014-5-21T6:19:19Z</time></trkpt>
<trkpt lat="46.13775015" lon="7.47829914"><ele></ele><time>2014-5-21T6:19:22Z</time></trkpt>
<trkpt lat="46.13759995" lon="7.47902870"><ele></ele><time>2014-5-21T6:19:25Z</time></trkpt>
<trkpt lat="46.13794327" lon="7.47935057"><ele></ele><time>2014-5-21T6:19:28Z</time></trkpt>
<trkpt lat="46.13779306" lon="7.47947931"><ele></ele><time>2014-5-21T6:19:31Z</time></trkpt>
<trkpt lat="46.13747120" lon="7.47954369"><ele></ele><time>2014-5-21T6:19:34Z</time></trkpt>
<trkpt lat="46.13719225" lon="7.47952223"><ele></ele><time>2014-5-21T6:19:37Z</time></trkpt>
<trkpt lat="46.13678455" lon="7.47982264"><ele></ele><time>2014-5-21T6:19:40Z</time></trkpt>
<trkpt lat="46.13633394" lon="7.47997284"><ele></ele><time>2014-5-21T6:19:43Z</time></trkpt>
<trkpt lat="46.13594770" lon="7.47992992"><ele></ele><time>2014-5-21T6:19:46Z</time></trkpt>
<trkpt lat="46.13545418" lon="7.47995138"><ele></ele><time>2014-5-21T6:19:49Z</time></trkpt>
<trkpt lat="46.13526106" lon="7.48001575"><ele></ele><time>2014-5-21T6:19:52Z</time></trkpt>
<trkpt lat="46.13478899" lon="7.48046637"><ele></ele><time>2014-5-21T6:19:55Z</time></trkpt>
<trkpt lat="46.13448858" lon="7.48087406"><ele></ele><time>2014-5-21T6:19:58Z</time></trkpt>
<trkpt lat="46.13429546" lon="7.48126030"><ele></ele><time>2014-5-21T6:20:1Z</time></trkpt>
<trkpt lat="46.13397360" lon="7.48156071"><ele></ele><time>2014-5-21T6:20:4Z</time></trkpt>
<trkpt lat="46.13339424" lon="7.48162508"><ele></ele><time>2014-5-21T6:20:7Z</time></trkpt>
<trkpt lat="46.13298655" lon="7.48179674"><ele></ele><time>2014-5-21T6:20:10Z</time></trkpt>
<trkpt lat="46.13290071" lon="7.48194695"><ele></ele><time>2014-5-21T6:20:13Z</time></trkpt>
<trkpt lat="46.13264322" lon="7.48205423"><ele></ele><time>2014-5-21T6:20:16Z</time></trkpt>
<trkpt lat="46.13214970" lon="7.48198986"><ele></ele><time>2014-5-21T6:20:19Z</time></trkpt>
<trkpt lat="46.13191366" lon="7.48203278"><ele></ele><time>2014-5-21T6:20:22Z</time></trkpt>
<trkpt lat="46.13169909" lon="7.48216152"><ele></ele><time>2014-5-21T6:20:25Z</time></trkpt>
<trkpt lat="46.13142014" lon="7.48226881"><ele></ele><time>2014-5-21T6:20:28Z</time></trkpt>
<trkpt lat="46.13120556" lon="7.48231173"><ele></ele><time>2014-5-21T6:20:31Z</time></trkpt>
<trkpt lat="46.13101244" lon="7.48224735"><ele></ele><time>2014-5-21T6:20:34Z</time></trkpt>
<trkpt lat="46.13075495" lon="7.48233318"><ele></ele><time>2014-5-21T6:20:37Z</time></trkpt>
<trkpt lat="46.13066912" lon="7.48244047"><ele></ele><time>2014-5-21T6:20:40Z</time></trkpt>
<trkpt lat="46.13017559" lon="7.48340607"><ele></ele><time>2014-5-21T6:20:43Z</time></trkpt>
<trkpt lat="46.12985373" lon="7.48379230"><ele></ele><time>2014-5-21T6:20:46Z</time></trkpt>
<trkpt lat="46.12976789" lon="7.48400688"><ele></ele><time>2014-5-21T6:20:49Z</time></trkpt>
<trkpt lat="46.12931728" lon="7.48561621"><ele></ele><time>2014-5-21T6:20:52Z</time></trkpt>
<trkpt lat="46.12925291" lon="7.48538017"><ele></ele><time>2014-5-21T6:20:55Z</time></trkpt>
<trkpt lat="46.12936020" lon="7.48490810"><ele></ele><time>2014-5-21T6:20:58Z</time></trkpt>
<trkpt lat="46.12936020" lon="7.48439312"><ele></ele><time>2014-5-21T6:21:1Z</time></trkpt>
<trkpt lat="46.12923145" lon="7.48314857"><ele></ele><time>2014-5-21T6:21:4Z</time></trkpt>
<trkpt lat="46.12923145" lon="7.48282671"><ele></ele><time>2014-5-21T6:21:7Z</time></trkpt>
<trkpt lat="46.12933874" lon="7.48237610"><ele></ele><time>2014-5-21T6:21:10Z</time></trkpt>
<trkpt lat="46.12918854" lon="7.48248339"><ele></ele><time>2014-5-21T6:21:13Z</time></trkpt>
<trkpt lat="46.12882376" lon="7.48340607"><ele></ele><time>2014-5-21T6:21:16Z</time></trkpt>
<trkpt lat="46.12865210" lon="7.48359919"><ele></ele><time>2014-5-21T6:21:19Z</time></trkpt>
<trkpt lat="46.12843752" lon="7.48398542"><ele></ele><time>2014-5-21T6:21:22Z</time></trkpt>
<trkpt lat="46.12837315" lon="7.48430729"><ele></ele><time>2014-5-21T6:21:25Z</time></trkpt>
<trkpt lat="46.12815857" lon="7.48471498"><ele></ele><time>2014-5-21T6:21:28Z</time></trkpt>
<trkpt lat="46.12787962" lon="7.48495102"><ele></ele><time>2014-5-21T6:21:31Z</time></trkpt>
<trkpt lat="46.12779379" lon="7.48533726"><ele></ele><time>2014-5-21T6:21:34Z</time></trkpt>
<trkpt lat="46.12779379" lon="7.48550892"><ele></ele><time>2014-5-21T6:21:37Z</time></trkpt>
<trkpt lat="46.12757921" lon="7.48621702"><ele></ele><time>2014-5-21T6:21:40Z</time></trkpt>
<trkpt lat="46.12719297" lon="7.48630285"><ele></ele><time>2014-5-21T6:21:43Z</time></trkpt>
<trkpt lat="46.12691402" lon="7.48643160"><ele></ele><time>2014-5-21T6:21:46Z</time></trkpt>
<trkpt lat="46.12648487" lon="7.48686075"><ele></ele><time>2014-5-21T6:21:49Z</time></trkpt>
<trkpt lat="46.12629175" lon="7.48720407"><ele></ele><time>2014-5-21T6:21:52Z</time></trkpt>
<trkpt lat="46.12601280" lon="7.48750448"><ele></ele><time>2014-5-21T6:21:55Z</time></trkpt>
<trkpt lat="46.12571239" lon="7.48752594"><ele></ele><time>2014-5-21T6:21:58Z</time></trkpt>
<trkpt lat="46.12526178" lon="7.48791218"><ele></ele><time>2014-5-21T6:22:1Z</time></trkpt>
<trkpt lat="46.12481117" lon="7.48849154"><ele></ele><time>2014-5-21T6:22:4Z</time></trkpt>
<trkpt lat="46.12461805" lon="7.48862028"><ele></ele><time>2014-5-21T6:22:7Z</time></trkpt>
<trkpt lat="46.12476826" lon="7.48836279"><ele></ele><time>2014-5-21T6:22:10Z</time></trkpt>
<trkpt lat="46.12483263" lon="7.48808384"><ele></ele><time>2014-5-21T6:22:13Z</time></trkpt>
<trkpt lat="46.12472534" lon="7.48819113"><ele></ele><time>2014-5-21T6:22:16Z</time></trkpt>
<trkpt lat="46.12451077" lon="7.48862028"><ele></ele><time>2014-5-21T6:22:19Z</time></trkpt>
<trkpt lat="46.12487555" lon="7.49042273"><ele></ele><time>2014-5-21T6:22:22Z</time></trkpt>
<trkpt lat="46.12487555" lon="7.49072313"><ele></ele><time>2014-5-21T6:22:25Z</time></trkpt>
<trkpt lat="46.12476826" lon="7.49063730"><ele></ele><time>2014-5-21T6:22:28Z</time></trkpt>
<trkpt lat="46.12444639" lon="7.48992920"><ele></ele><time>2014-5-21T6:22:31Z</time></trkpt>
<trkpt lat="46.12425327" lon="7.48934984"><ele></ele><time>2014-5-21T6:22:34Z</time></trkpt>
<trkpt lat="46.12399578" lon="7.48902798"><ele></ele><time>2014-5-21T6:22:37Z</time></trkpt>
<trkpt lat="46.12386703" lon="7.48868465"><ele></ele><time>2014-5-21T6:22:40Z</time></trkpt>
<trkpt lat="46.12388849" lon="7.48784781"><ele></ele><time>2014-5-21T6:22:43Z</time></trkpt>
<trkpt lat="46.12395287" lon="7.48759031"><ele></ele><time>2014-5-21T6:22:46Z</time></trkpt>
<trkpt lat="46.12406015" lon="7.48735428"><ele></ele><time>2014-5-21T6:22:49Z</time></trkpt>
<trkpt lat="46.12414598" lon="7.48724699"><ele></ele><time>2014-5-21T6:22:52Z</time></trkpt>
<trkpt lat="46.12444639" lon="7.48711824"><ele></ele><time>2014-5-21T6:22:55Z</time></trkpt>
<trkpt lat="46.12436056" lon="7.48701096"><ele></ele><time>2014-5-21T6:22:58Z</time></trkpt>
<trkpt lat="46.12414598" lon="7.48707533"><ele></ele><time>2014-5-21T6:23:1Z</time></trkpt>
<trkpt lat="46.12380266" lon="7.48694658"><ele></ele><time>2014-5-21T6:23:4Z</time></trkpt>
<trkpt lat="46.12369537" lon="7.48716116"><ele></ele><time>2014-5-21T6:23:7Z</time></trkpt>
<trkpt lat="46.12343788" lon="7.48838425"><ele></ele><time>2014-5-21T6:23:10Z</time></trkpt>
<trkpt lat="46.12335205" lon="7.48902798"><ele></ele><time>2014-5-21T6:23:13Z</time></trkpt>
<trkpt lat="46.12341642" lon="7.48943567"><ele></ele><time>2014-5-21T6:23:16Z</time></trkpt>
<trkpt lat="46.12360954" lon="7.49018669"><ele></ele><time>2014-5-21T6:23:19Z</time></trkpt>
<trkpt lat="46.12367392" lon="7.49033689"><ele></ele><time>2014-5-21T6:23:22Z</time></trkpt>
<trkpt lat="46.12360954" lon="7.49065876"><ele></ele><time>2014-5-21T6:23:25Z</time></trkpt>
<trkpt lat="46.12275124" lon="7.49076605"><ele></ele><time>2014-5-21T6:23:28Z</time></trkpt>
<trkpt lat="46.12202168" lon="7.49061584"><ele></ele><time>2014-5-21T6:23:31Z</time></trkpt>
<trkpt lat="46.12129211" lon="7.49091625"><ele></ele><time>2014-5-21T6:23:34Z</time></trkpt>
<trkpt lat="46.12000465" lon="7.49183893"><ele></ele><time>2014-5-21T6:23:37Z</time></trkpt>
<trkpt lat="46.11974716" lon="7.49226809"><ele></ele><time>2014-5-21T6:23:40Z</time></trkpt>
<trkpt lat="46.11946821" lon="7.49256849"><ele></ele><time>2014-5-21T6:23:43Z</time></trkpt>
<trkpt lat="46.11860991" lon="7.49301910"><ele></ele><time>2014-5-21T6:23:46Z</time></trkpt>
<trkpt lat="46.11818075" lon="7.49316931"><ele></ele><time>2014-5-21T6:23:49Z</time></trkpt>
<trkpt lat="46.11785889" lon="7.49336243"><ele></ele><time>2014-5-21T6:23:52Z</time></trkpt>
<trkpt lat="46.11764431" lon="7.49366283"><ele></ele><time>2014-5-21T6:23:55Z</time></trkpt>
<trkpt lat="46.11745119" lon="7.49400616"><ele></ele><time>2014-5-21T6:23:58Z</time></trkpt>
<trkpt lat="46.11745119" lon="7.49374866"><ele></ele><time>2014-5-21T6:24:1Z</time></trkpt>
<trkpt lat="46.11757994" lon="7.49301910"><ele></ele><time>2014-5-21T6:24:4Z</time></trkpt>
<trkpt lat="46.11794472" lon="7.49220371"><ele></ele><time>2014-5-21T6:24:7Z</time></trkpt>
<trkpt lat="46.11916780" lon="7.49083042"><ele></ele><time>2014-5-21T6:24:10Z</time></trkpt>
<trkpt lat="46.11948967" lon="7.49059439"><ele></ele><time>2014-5-21T6:24:13Z</time></trkpt>
<trkpt lat="46.11976862" lon="7.49010086"><ele></ele><time>2014-5-21T6:24:16Z</time></trkpt>
<trkpt lat="46.12006903" lon="7.48945713"><ele></ele><time>2014-5-21T6:24:19Z</time></trkpt>
<trkpt lat="46.12017632" lon="7.48913527"><ele></ele><time>2014-5-21T6:24:22Z</time></trkpt>
<trkpt lat="46.11996174" lon="7.48922110"><ele></ele><time>2014-5-21T6:24:25Z</time></trkpt>
<trkpt lat="46.11933947" lon="7.48960733"><ele></ele><time>2014-5-21T6:24:28Z</time></trkpt>
<trkpt lat="46.11852407" lon="7.48988628"><ele></ele><time>2014-5-21T6:24:31Z</time></trkpt>
<trkpt lat="46.11818075" lon="7.48982191"><ele></ele><time>2014-5-21T6:24:34Z</time></trkpt>
<trkpt lat="46.11790180" lon="7.48999357"><ele></ele><time>2014-5-21T6:24:37Z</time></trkpt>
<trkpt lat="46.11766577" lon="7.49005795"><ele></ele><time>2014-5-21T6:24:40Z</time></trkpt>
<trkpt lat="46.11693621" lon="7.49037981"><ele></ele><time>2014-5-21T6:24:43Z</time></trkpt>
<trkpt lat="46.11637831" lon="7.49089479"><ele></ele><time>2014-5-21T6:24:46Z</time></trkpt>
<trkpt lat="46.11607790" lon="7.49113083"><ele></ele><time>2014-5-21T6:24:49Z</time></trkpt>
<trkpt lat="46.11594915" lon="7.49140978"><ele></ele><time>2014-5-21T6:24:52Z</time></trkpt>
<trkpt lat="46.11579895" lon="7.49149561"><ele></ele><time>2014-5-21T6:24:55Z</time></trkpt>
<trkpt lat="46.11594915" lon="7.49100208"><ele></ele><time>2014-5-21T6:24:58Z</time></trkpt>
<trkpt lat="46.11588478" lon="7.49091625"><ele></ele><time>2014-5-21T6:25:1Z</time></trkpt>
<trkpt lat="46.11567020" lon="7.49083042"><ele></ele><time>2014-5-21T6:25:4Z</time></trkpt>
<trkpt lat="46.11562729" lon="7.49076605"><ele></ele><time>2014-5-21T6:25:7Z</time></trkpt>
<trkpt lat="46.11515522" lon="7.49149561"><ele></ele><time>2014-5-21T6:25:10Z</time></trkpt>
<trkpt lat="46.11438274" lon="7.49248266"><ele></ele><time>2014-5-21T6:25:13Z</time></trkpt>
<trkpt lat="46.11406088" lon="7.49301910"><ele></ele><time>2014-5-21T6:25:16Z</time></trkpt>
<trkpt lat="46.11339569" lon="7.49437094"><ele></ele><time>2014-5-21T6:25:19Z</time></trkpt>
<trkpt lat="46.11318111" lon="7.49516487"><ele></ele><time>2014-5-21T6:25:22Z</time></trkpt>
<trkpt lat="46.11277342" lon="7.49578714"><ele></ele><time>2014-5-21T6:25:25Z</time></trkpt>
<trkpt lat="46.11300945" lon="7.49576569"><ele></ele><time>2014-5-21T6:25:28Z</time></trkpt>
<trkpt lat="46.11290216" lon="7.49634504"><ele></ele><time>2014-5-21T6:25:31Z</time></trkpt>
<trkpt lat="46.11234426" lon="7.49711752"><ele></ele><time>2014-5-21T6:25:34Z</time></trkpt>
</trkseg></trk></gpx>